Time;durP1;ratioP1;P1;durP2;ratioP2;P2;SDS_P1;SDS_P2;PMS_P1;PMS_P2;Temp;Humidity;BMP_temperature;BMP_pressure;BME280_temperature;BME280_humidity;BME280_pressure;Samples;Min_cycle;Max_cycle;Signal;HPM_P1;HPM_P2
2023/02/28 00:00:43;;;;;;;9.47;7.13;;;;;;;0.32;95.25;100315.72;5032601;28;20229;-81
2023/02/28 00:03:16;;;;;;;8.87;6.67;;;;;;;0.41;94.87;100317.53;5033777;28;20198;-80
2023/02/28 00:05:43;;;;;;;7.80;6.63;;;;;;;0.36;94.95;100319.75;5033696;28;20220;-79
2023/02/28 00:08:16;;;;;;;9.30;6.97;;;;;;;0.19;96.06;100319.56;5007996;28;20240;-81
2023/02/28 00:10:43;;;;;;;9.30;6.50;;;;;;;0.23;96.72;100326.25;5016972;28;20650;-80
2023/02/28 00:13:13;;;;;;;9.83;6.83;;;;;;;0.20;97.04;100324.69;5018880;28;20293;-79
2023/02/28 00:15:39;;;;;;;8.63;6.80;;;;;;;0.18;97.11;100331.09;4999649;28;20289;-82
2023/02/28 00:18:06;;;;;;;8.67;6.40;;;;;;;0.15;97.66;100326.91;5016218;28;20202;-82
2023/02/28 00:20:37;;;;;;;8.57;6.80;;;;;;;0.19;98.00;100327.47;5016522;28;20202;-81
2023/02/28 00:23:06;;;;;;;8.27;6.57;;;;;;;0.20;98.22;100332.59;5015629;28;20214;-80
2023/02/28 00:25:36;;;;;;;9.20;6.67;;;;;;;0.19;98.37;100332.72;5033618;28;20540;-82
2023/02/28 00:28:04;;;;;;;10.70;7.07;;;;;;;0.18;98.49;100339.84;5032400;28;20187;-78
2023/02/28 00:30:34;;;;;;;8.40;6.67;;;;;;;0.22;98.54;100338.59;5035663;28;20187;-78
2023/02/28 00:33:03;;;;;;;8.47;6.83;;;;;;;0.23;98.43;100332.34;5019544;28;20222;-79
2023/02/28 00:35:33;;;;;;;9.77;6.83;;;;;;;0.34;98.27;100331.38;5032427;28;20202;-81
2023/02/28 00:38:03;;;;;;;9.97;6.77;;;;;;;0.35;97.66;100335.69;5033386;28;20206;-80
2023/02/28 00:40:37;;;;;;;9.63;6.53;;;;;;;0.31;97.72;100343.03;5033762;28;20186;-81
2023/02/28 00:43:04;;;;;;;8.30;6.70;;;;;;;0.38;98.03;100338.88;5037430;28;20190;-80
2023/02/28 00:45:32;;;;;;;10.57;7.30;;;;;;;0.32;96.89;100336.81;5042172;28;20182;-78
2023/02/28 00:47:59;;;;;;;9.10;7.10;;;;;;;0.27;97.45;100335.53;5036268;28;20604;-81
2023/02/28 00:50:35;;;;;;;9.60;7.13;;;;;;;0.30;97.15;100333.47;5032162;28;20190;-83
2023/02/28 00:53:04;;;;;;;9.17;6.93;;;;;;;0.29;97.45;100325.69;5041272;28;20221;-81
2023/02/28 00:55:33;;;;;;;8.93;6.53;;;;;;;0.32;97.79;100330.69;5033608;28;20273;-80
2023/02/28 00:58:06;;;;;;;9.30;7.00;;;;;;;0.31;97.77;100342.22;5014426;28;20238;-81
2023/02/28 01:00:36;;;;;;;8.27;6.77;;;;;;;0.35;97.14;100333.06;5032271;28;20215;-79
2023/02/28 01:03:04;;;;;;;9.10;6.97;;;;;;;0.31;97.61;100331.66;5020402;28;20574;-80
2023/02/28 01:05:35;;;;;;;10.03;7.60;;;;;;;0.33;97.41;100342.88;5015752;28;20198;-78
2023/02/28 01:08:04;;;;;;;9.43;7.60;;;;;;;0.28;97.20;100338.03;5036280;28;20312;-81
2023/02/28 01:10:32;;;;;;;9.30;7.13;;;;;;;0.34;97.24;100345.41;5031792;28;20658;-79
2023/02/28 01:13:07;;;;;;;9.43;6.97;;;;;;;0.40;98.30;100347.50;5031967;28;20670;-80
2023/02/28 01:15:36;;;;;;;9.57;7.43;;;;;;;0.40;98.67;100344.84;5032837;28;20197;-79
2023/02/28 01:18:04;;;;;;;10.80;6.80;;;;;;;0.47;98.62;100349.59;5033443;28;20209;-81
2023/02/28 01:20:35;;;;;;;9.03;7.13;;;;;;;0.47;98.97;100350.41;5016367;28;20193;-79
2023/02/28 01:23:02;;;;;;;10.20;6.73;;;;;;;0.46;98.73;100355.81;5015196;28;20260;-80
2023/02/28 01:25:37;;;;;;;9.13;7.20;;;;;;;0.53;98.63;100360.41;5030652;28;20194;-82
2023/02/28 01:28:05;;;;;;;8.70;6.97;;;;;;;0.49;98.87;100353.75;5032706;28;20186;-81
2023/02/28 01:30:33;;;;;;;10.33;7.00;;;;;;;0.47;98.25;100353.03;5034098;28;20703;-81
2023/02/28 01:33:02;;;;;;;9.83;7.57;;;;;;;0.53;97.89;100356.94;5027446;28;20218;-80
2023/02/28 01:35:34;;;;;;;9.90;7.30;;;;;;;0.49;97.40;100358.19;5019395;28;20194;-78
2023/02/28 01:38:02;;;;;;;11.40;7.77;;;;;;;0.42;97.16;100348.16;5031712;28;20236;-79
2023/02/28 01:40:52;;;;;;;11.33;7.63;;;;;;;0.51;97.71;100341.25;5033240;28;20209;-81
2023/02/28 01:43:25;;;;;;;11.13;7.77;;;;;;;0.62;96.21;100343.75;5004847;28;20206;-81
2023/02/28 01:45:55;;;;;;;9.43;7.40;;;;;;;0.58;96.38;100336.25;5019772;28;20190;-80
2023/02/28 01:48:32;;;;;;;9.07;7.57;;;;;;;0.57;96.69;100345.13;5036007;28;20197;-78
2023/02/28 01:51:09;;;;;;;9.03;7.33;;;;;;;0.35;98.60;100343.59;5003963;28;20255;-80
2023/02/28 01:53:46;;;;;;;10.73;7.40;;;;;;;0.40;98.85;100342.22;5003243;28;20202;-83
2023/02/28 01:56:22;;;;;;;8.37;7.47;;;;;;;0.46;98.83;100351.38;5018918;28;20606;-81
2023/02/28 01:58:53;;;;;;;10.77;7.57;;;;;;;0.45;99.99;100344.44;5018162;28;20197;-80
2023/02/28 02:01:35;;;;;;;10.00;7.77;;;;;;;0.43;100.00;100346.38;5029826;28;20212;-83
2023/02/28 02:04:05;;;;;;;10.63;7.60;;;;;;;0.46;100.00;100342.63;5034325;28;20205;-82
2023/02/28 02:06:42;;;;;;;10.70;7.47;;;;;;;0.46;100.00;100337.38;5021912;28;20186;-82
2023/02/28 02:09:09;;;;;;;10.40;7.70;;;;;;;0.49;100.00;100339.72;5035562;28;20752;-81
2023/02/28 02:11:37;;;;;;;9.80;7.60;;;;;;;0.54;100.00;100338.34;5035486;28;20198;-81
2023/02/28 02:14:16;;;;;;;10.33;7.30;;;;;;;0.53;100.00;100343.75;5034555;28;20195;-82
2023/02/28 02:17:02;;;;;;;9.97;8.17;;;;;;;0.53;99.48;100338.47;5035581;28;20202;-79
2023/02/28 02:19:41;;;;;;;10.50;7.90;;;;;;;0.48;98.97;100336.25;5042239;28;20230;-80
2023/02/28 02:22:31;;;;;;;9.23;7.57;;;;;;;0.49;98.27;100342.34;5033216;28;20187;-82
2023/02/28 02:25:11;;;;;;;10.43;7.87;;;;;;;0.44;97.79;100340.13;5035136;28;20259;-80
2023/02/28 02:28:11;;;;;;;9.03;7.60;;;;;;;0.35;97.17;100348.88;5036387;28;20190;-80
2023/02/28 02:30:48;;;;;;;11.03;8.00;;;;;;;0.28;96.93;100340.66;5035865;28;20197;-80
2023/02/28 02:33:43;;;;;;;9.37;7.77;;;;;;;0.15;97.19;100332.19;5037814;28;20186;-83
2023/02/28 02:36:17;;;;;;;11.40;8.00;;;;;;;0.16;97.16;100336.50;5030973;28;20182;-80
2023/02/28 02:38:54;;;;;;;9.77;7.70;;;;;;;0.04;98.41;100327.06;5016000;28;20257;-81
2023/02/28 02:41:38;;;;;;;9.63;7.60;;;;;;;0.08;98.46;100330.25;5008317;28;20748;-80
2023/02/28 02:44:14;;;;;;;10.53;7.13;;;;;;;-0.04;98.94;100337.41;5029561;28;20178;-81
2023/02/28 02:46:43;;;;;;;9.50;7.47;;;;;;;-0.11;99.06;100339.75;5035445;28;20201;-79
2023/02/28 02:49:22;;;;;;;11.37;8.07;;;;;;;-0.20;99.79;100331.81;5040527;28;20661;-81
2023/02/28 02:51:54;;;;;;;9.90;8.50;;;;;;;-0.19;100.00;100329.06;5027817;28;20194;-80
2023/02/28 02:54:28;;;;;;;11.80;7.67;;;;;;;-0.17;100.00;100334.19;5034526;28;20194;-80
2023/02/28 02:57:01;;;;;;;10.07;8.10;;;;;;;-0.13;100.00;100335.56;5041798;28;20647;-79
2023/02/28 02:59:32;;;;;;;10.20;7.93;;;;;;;-0.11;100.00;100323.97;5034483;28;20229;-80
2023/02/28 03:02:04;;;;;;;11.27;8.43;;;;;;;-0.09;100.00;100327.28;5041446;28;20297;-80
2023/02/28 03:04:36;;;;;;;10.47;8.43;;;;;;;-0.08;100.00;100331.59;5004627;28;20213;-80
2023/02/28 03:07:03;;;;;;;10.40;7.83;;;;;;;-0.07;100.00;100330.63;5017686;28;20204;-79
2023/02/28 03:09:38;;;;;;;9.83;8.03;;;;;;;-0.07;100.00;100330.63;5041453;28;20722;-81
2023/02/28 03:12:10;;;;;;;11.17;8.13;;;;;;;-0.13;100.00;100330.31;5034257;28;20217;-80
2023/02/28 03:15:06;;;;;;;10.83;8.20;;;;;;;-0.23;100.00;100330.28;5014924;28;20283;-79
2023/02/28 03:17:51;;;;;;;9.13;7.63;;;;;;;-0.18;100.00;100329.88;5024704;28;20202;-79
2023/02/28 03:20:36;;;;;;;12.07;7.90;;;;;;;-0.24;100.00;100333.06;5033651;28;20222;-80
2023/02/28 03:23:05;;;;;;;11.23;8.17;;;;;;;-0.24;100.00;100333.91;5033366;28;20248;-80
2023/02/28 03:26:02;;;;;;;11.90;8.10;;;;;;;-0.34;100.00;100335.66;5031200;28;20746;-79
2023/02/28 03:28:39;;;;;;;10.07;7.53;;;;;;;-0.39;100.00;100334.38;4998899;28;20245;-80
2023/02/28 03:31:32;;;;;;;10.63;8.23;;;;;;;-0.45;100.00;100341.84;5026371;28;20224;-80
2023/02/28 03:34:07;;;;;;;10.63;8.30;;;;;;;-0.41;100.00;100347.69;5034953;28;20194;-80
2023/02/28 03:36:48;;;;;;;10.67;8.20;;;;;;;-0.43;100.00;100341.72;5033207;28;20225;-79
2023/02/28 03:39:23;;;;;;;10.23;7.73;;;;;;;-0.43;100.00;100339.09;5010388;28;20245;-80
2023/02/28 03:42:05;;;;;;;12.63;8.60;;;;;;;-0.43;100.00;100331.19;5033644;28;20190;-83
2023/02/28 03:44:39;;;;;;;10.60;8.53;;;;;;;-0.41;100.00;100341.56;5013047;28;20206;-79
2023/02/28 03:47:29;;;;;;;11.33;8.50;;;;;;;-0.44;100.00;100340.06;5015418;28;20190;-79
2023/02/28 03:50:17;;;;;;;11.63;8.23;;;;;;;-0.47;100.00;100335.88;5022651;28;20791;-82
2023/02/28 03:53:13;;;;;;;10.77;8.60;;;;;;;-0.42;100.00;100351.25;5037281;28;20233;-80
2023/02/28 03:55:45;;;;;;;12.70;9.00;;;;;;;-0.41;100.00;100344.19;5028920;28;20236;-79
2023/02/28 03:58:20;;;;;;;11.13;8.30;;;;;;;-0.36;100.00;100347.28;5016194;28;20622;-83
2023/02/28 04:00:54;;;;;;;10.27;7.90;;;;;;;-0.28;100.00;100347.47;5032540;28;20701;-79
2023/02/28 04:03:31;;;;;;;11.83;8.30;;;;;;;-0.30;100.00;100352.84;5034243;28;20650;-81
2023/02/28 04:06:00;;;;;;;10.63;8.13;;;;;;;-0.15;100.00;100351.53;5031473;28;20209;-80
2023/02/28 04:08:31;;;;;;;10.70;8.20;;;;;;;-0.18;100.00;100343.88;5038332;28;20328;-79
2023/02/28 04:11:14;;;;;;;12.37;9.87;;;;;;;-0.16;100.00;100341.97;5019412;28;20260;-79
2023/02/28 04:13:45;;;;;;;14.00;9.90;;;;;;;-0.21;100.00;100338.91;5039512;28;20201;-81
2023/02/28 04:16:18;;;;;;;17.67;10.43;;;;;;;-0.34;100.00;100342.72;5018098;28;20198;-82
2023/02/28 04:19:04;;;;;;;13.33;9.77;;;;;;;-0.28;100.00;100347.47;5019134;28;20206;-81
2023/02/28 04:21:40;;;;;;;12.17;9.57;;;;;;;-0.27;100.00;100351.75;5041257;28;20252;-80
2023/02/28 04:24:14;;;;;;;15.33;9.43;;;;;;;-0.36;100.00;100347.28;5035555;28;20247;-80
2023/02/28 04:26:44;;;;;;;11.37;9.17;;;;;;;-0.40;100.00;100348.50;5032961;28;20230;-80
2023/02/28 04:29:13;;;;;;;13.07;9.67;;;;;;;-0.35;100.00;100341.06;5017876;28;20206;-79
2023/02/28 04:31:40;;;;;;;11.07;9.10;;;;;;;-0.47;100.00;100343.75;5000443;28;20536;-79
2023/02/28 04:34:06;;;;;;;12.10;8.93;;;;;;;-0.48;100.00;100357.09;5016493;28;20194;-80
2023/02/28 04:36:36;;;;;;;13.90;9.80;;;;;;;-0.57;100.00;100340.28;5016531;28;20301;-80
2023/02/28 04:39:06;;;;;;;12.70;9.20;;;;;;;-0.55;100.00;100343.59;5032716;28;20229;-81
2023/02/28 04:41:35;;;;;;;11.97;9.00;;;;;;;-0.63;100.00;100346.06;5033449;28;20182;-80
2023/02/28 04:44:02;;;;;;;12.93;9.07;;;;;;;-0.71;100.00;100343.25;5033770;28;20195;-80
2023/02/28 04:46:30;;;;;;;13.00;9.00;;;;;;;-0.67;100.00;100344.66;5032460;28;20292;-80
2023/02/28 04:48:57;;;;;;;11.77;9.07;;;;;;;-0.68;100.00;100353.50;5017236;28;20190;-81
2023/02/28 04:51:24;;;;;;;12.73;9.20;;;;;;;-0.76;100.00;100348.06;5035155;28;20182;-85
2023/02/28 04:53:52;;;;;;;11.37;9.20;;;;;;;-0.75;100.00;100351.53;5035792;28;20194;-79
2023/02/28 04:56:20;;;;;;;13.23;9.40;;;;;;;-0.81;100.00;100352.88;5009165;28;20722;-79
2023/02/28 04:58:47;;;;;;;13.17;9.33;;;;;;;-0.81;100.00;100352.88;5014858;28;20190;-81
2023/02/28 05:01:26;;;;;;;11.80;9.40;;;;;;;-0.77;100.00;100351.66;5014693;28;20205;-80
2023/02/28 05:03:56;;;;;;;12.57;9.40;;;;;;;-0.77;100.00;100348.19;5031624;28;20236;-80
2023/02/28 05:06:24;;;;;;;15.13;10.00;;;;;;;-0.71;100.00;100345.03;5015924;28;20646;-82
2023/02/28 05:08:51;;;;;;;12.77;9.60;;;;;;;-0.77;100.00;100346.41;5031282;28;20261;-81
2023/02/28 05:11:24;;;;;;;11.57;9.60;;;;;;;-0.76;100.00;100348.06;5016558;28;20201;-80
2023/02/28 05:14:00;;;;;;;10.97;9.00;;;;;;;-0.62;100.00;100357.44;5036522;28;20189;-81
2023/02/28 05:16:27;;;;;;;12.93;9.70;;;;;;;-0.65;100.00;100347.97;5040469;28;20202;-79
2023/02/28 05:18:56;;;;;;;11.53;9.63;;;;;;;-0.52;100.00;100356.50;5015888;28;20240;-79
2023/02/28 05:21:26;;;;;;;11.30;9.33;;;;;;;-0.61;100.00;100352.03;5015709;28;20225;-79
2023/02/28 05:23:59;;;;;;;13.97;9.67;;;;;;;-0.60;100.00;100350.22;5018699;28;20202;-81
2023/02/28 05:26:28;;;;;;;12.00;8.83;;;;;;;-0.59;100.00;100350.09;5031672;28;20312;-81
2023/02/28 05:28:56;;;;;;;12.37;9.63;;;;;;;-0.62;100.00;100350.38;5018272;28;20280;-84
2023/02/28 05:31:23;;;;;;;12.03;9.57;;;;;;;-0.60;100.00;100366.00;4999069;28;20281;-79
2023/02/28 05:33:50;;;;;;;11.80;9.63;;;;;;;-0.70;100.00;100370.41;5017772;28;20248;-80
2023/02/28 05:36:17;;;;;;;12.93;9.70;;;;;;;-0.74;100.00;100369.81;5019679;28;20284;-81
2023/02/28 05:38:49;;;;;;;12.97;9.63;;;;;;;-0.81;100.00;100370.47;5018159;28;20186;-79
2023/02/28 05:41:19;;;;;;;12.87;9.90;;;;;;;-0.85;100.00;100371.69;5031352;28;20288;-80
2023/02/28 05:43:51;;;;;;;12.13;9.57;;;;;;;-0.71;100.00;100376.63;5032774;28;20659;-81
2023/02/28 05:46:21;;;;;;;12.10;9.90;;;;;;;-0.74;100.00;100376.88;5032126;28;20670;-80
2023/02/28 05:48:50;;;;;;;14.27;10.13;;;;;;;-0.68;100.00;100386.88;5016385;28;20202;-81
2023/02/28 05:51:21;;;;;;;14.27;10.57;;;;;;;-0.71;100.00;100380.09;5030704;28;20198;-80
2023/02/28 05:53:49;;;;;;;15.87;11.87;;;;;;;-0.69;100.00;100393.94;5039787;28;20189;-79
2023/02/28 05:56:15;;;;;;;14.90;10.67;;;;;;;-0.63;100.00;100388.16;5035082;28;20209;-80
2023/02/28 05:58:43;;;;;;;13.60;10.30;;;;;;;-0.68;100.00;100389.50;5030641;28;20281;-80
2023/02/28 06:01:36;;;;;;;14.60;10.37;;;;;;;-0.60;100.00;100390.53;5032688;28;20222;-79
2023/02/28 06:04:08;;;;;;;16.07;10.70;;;;;;;-0.55;100.00;100392.78;5031609;28;20281;-79
2023/02/28 06:06:45;;;;;;;16.47;10.60;;;;;;;-0.51;100.00;100391.53;5033387;28;20255;-80
2023/02/28 06:09:13;;;;;;;14.23;10.37;;;;;;;-0.40;100.00;100391.47;5029785;28;20244;-79
2023/02/28 06:11:39;;;;;;;13.57;10.40;;;;;;;-0.31;100.00;100403.00;5031169;28;20190;-79
2023/02/28 06:14:06;;;;;;;16.63;11.63;;;;;;;-0.25;100.00;100405.13;5031423;28;20190;-79
2023/02/28 06:16:34;;;;;;;19.13;12.90;;;;;;;-0.20;100.00;100403.78;5031763;28;20195;-79
2023/02/28 06:19:02;;;;;;;17.67;12.80;;;;;;;-0.14;100.00;100405.06;5030090;28;20225;-79
2023/02/28 06:21:29;;;;;;;17.57;12.30;;;;;;;0.02;100.00;100404.53;5016884;28;20248;-80
2023/02/28 06:23:58;;;;;;;14.87;12.10;;;;;;;0.03;100.00;100401.78;5036028;28;20186;-80
2023/02/28 06:26:25;;;;;;;17.73;11.93;;;;;;;0.13;100.00;100413.19;5031922;28;20194;-80
2023/02/28 06:28:51;;;;;;;16.10;11.83;;;;;;;0.23;100.00;100413.22;5018117;28;20273;-80
2023/02/28 06:31:18;;;;;;;15.93;12.27;;;;;;;0.31;100.00;100411.56;5035722;28;20266;-79
2023/02/28 06:33:45;;;;;;;15.03;11.20;;;;;;;0.28;100.00;100411.03;5020639;28;20648;-79
2023/02/28 06:36:14;;;;;;;14.47;11.23;;;;;;;0.26;100.00;100407.66;5017548;28;20200;-80
2023/02/28 06:38:43;;;;;;;14.23;10.73;;;;;;;0.30;100.00;100422.25;5034453;28;20210;-79
2023/02/28 06:41:10;;;;;;;14.80;11.10;;;;;;;0.36;100.00;100419.06;5037566;28;20229;-80
2023/02/28 06:43:39;;;;;;;14.53;11.83;;;;;;;0.33;100.00;100414.88;5039729;28;20194;-81
2023/02/28 06:46:08;;;;;;;15.57;10.70;;;;;;;0.36;100.00;100419.06;5037886;28;20269;-78
2023/02/28 06:48:35;;;;;;;14.10;9.80;;;;;;;0.41;100.00;100411.59;5039456;28;20191;-80
2023/02/28 06:51:13;;;;;;;14.67;11.30;;;;;;;0.43;100.00;100420.19;5038231;28;20190;-78
2023/02/28 06:53:40;;;;;;;13.33;10.27;;;;;;;0.51;100.00;100415.09;5037235;28;20197;-80
2023/02/28 06:56:13;;;;;;;13.80;11.30;;;;;;;0.58;100.00;100425.91;5036343;28;20190;-79
2023/02/28 06:58:40;;;;;;;16.10;11.57;;;;;;;0.61;100.00;100426.47;5037163;28;20186;-78
2023/02/28 07:01:07;;;;;;;14.83;11.23;;;;;;;0.67;100.00;100422.44;5016933;28;20218;-80
2023/02/28 07:03:35;;;;;;;15.40;12.07;;;;;;;0.83;100.00;100428.03;5036274;28;20210;-79
2023/02/28 07:06:03;;;;;;;16.17;11.80;;;;;;;0.95;100.00;100426.91;5023723;28;20210;-81
2023/02/28 07:08:31;;;;;;;15.70;11.10;;;;;;;1.11;100.00;100423.72;5039392;28;20225;-79
2023/02/28 07:10:58;;;;;;;17.53;11.80;;;;;;;1.18;100.00;100419.53;5036006;28;20190;-80
2023/02/28 07:13:25;;;;;;;14.73;11.03;;;;;;;1.31;100.00;100420.06;5040062;28;20194;-79
2023/02/28 07:15:59;;;;;;;14.87;11.37;;;;;;;1.53;100.00;100430.34;5033316;28;20214;-80
2023/02/28 07:18:27;;;;;;;13.03;10.63;;;;;;;1.67;100.00;100424.59;5002858;28;20207;-80
2023/02/28 07:20:56;;;;;;;16.97;11.23;;;;;;;1.90;100.00;100425.09;5036586;28;20214;-79
2023/02/28 07:23:23;;;;;;;12.70;10.40;;;;;;;2.12;100.00;100424.72;5032987;28;20377;-82
2023/02/28 07:25:50;;;;;;;13.03;10.33;;;;;;;2.35;99.26;100427.78;5034183;28;20196;-79
2023/02/28 07:28:17;;;;;;;13.40;10.70;;;;;;;2.62;97.51;100430.41;5006233;28;20201;-81
2023/02/28 07:30:44;;;;;;;13.60;10.97;;;;;;;2.84;96.21;100438.91;5035152;28;20293;-81
2023/02/28 07:33:11;;;;;;;14.77;11.27;;;;;;;2.93;95.53;100432.72;5036384;28;20198;-79
2023/02/28 07:35:42;;;;;;;14.27;10.97;;;;;;;3.03;94.13;100430.84;5047058;28;20198;-82
2023/02/28 07:38:13;;;;;;;14.30;10.83;;;;;;;3.16;93.61;100433.09;5033343;28;20198;-81
2023/02/28 07:40:40;;;;;;;15.70;11.40;;;;;;;3.28;91.02;100431.84;5032969;28;20264;-79
2023/02/28 07:43:07;;;;;;;12.53;10.57;;;;;;;3.11;89.87;100430.91;5034935;28;20265;-80
2023/02/28 07:45:34;;;;;;;13.07;11.10;;;;;;;3.27;89.00;100428.38;5040165;28;20284;-82
2023/02/28 07:48:05;;;;;;;15.00;10.87;;;;;;;3.22;88.22;100429.84;5016481;28;20208;-81
2023/02/28 07:50:32;;;;;;;12.53;10.80;;;;;;;3.32;87.87;100435.84;5032511;28;20198;-79
2023/02/28 07:52:59;;;;;;;12.97;10.80;;;;;;;3.40;87.78;100447.38;5032438;28;20194;-81
2023/02/28 07:55:26;;;;;;;12.40;10.77;;;;;;;3.44;87.34;100442.59;5016083;28;20209;-79
2023/02/28 07:57:54;;;;;;;12.63;11.03;;;;;;;3.48;87.40;100442.13;5032384;28;20245;-80
2023/02/28 08:00:21;;;;;;;14.13;11.37;;;;;;;3.62;86.41;100434.59;5015844;28;20593;-82
2023/02/28 08:02:51;;;;;;;12.80;10.80;;;;;;;3.65;86.39;100440.41;5032858;28;20202;-80
2023/02/28 08:05:18;;;;;;;13.43;11.13;;;;;;;3.76;85.50;100440.16;5032453;28;20271;-80
2023/02/28 08:07:49;;;;;;;12.87;10.87;;;;;;;3.91;85.20;100446.56;5016152;28;20237;-80
2023/02/28 08:10:16;;;;;;;13.30;11.07;;;;;;;4.04;85.12;100454.06;5016350;28;20198;-80
2023/02/28 08:12:43;;;;;;;12.73;10.90;;;;;;;4.23;84.38;100458.31;5032660;28;20278;-81
2023/02/28 08:15:10;;;;;;;13.80;11.07;;;;;;;4.34;84.35;100453.53;5014744;28;20201;-80
2023/02/28 08:17:37;;;;;;;12.90;10.80;;;;;;;4.34;84.03;100448.25;5032230;28;20194;-79
2023/02/28 08:20:04;;;;;;;14.33;11.40;;;;;;;4.38;83.64;100454.09;5015818;28;20305;-82
2023/02/28 08:22:31;;;;;;;14.33;10.93;;;;;;;4.42;83.31;100461.56;5031697;28;20238;-82
2023/02/28 08:24:58;;;;;;;15.80;11.40;;;;;;;4.32;82.25;100449.41;5032003;28;20535;-80
2023/02/28 08:27:24;;;;;;;14.03;11.07;;;;;;;4.20;82.65;100453.34;5014939;28;20269;-80
2023/02/28 08:29:51;;;;;;;15.20;12.60;;;;;;;4.11;83.17;100456.91;5028530;28;20194;-81
2023/02/28 08:32:18;;;;;;;13.43;11.07;;;;;;;4.04;84.11;100455.91;5031775;28;20186;-80
2023/02/28 08:34:55;;;;;;;12.37;10.50;;;;;;;4.02;84.18;100450.75;5029973;28;20186;-81
2023/02/28 08:37:22;;;;;;;15.27;11.67;;;;;;;4.02;84.10;100452.56;5033764;28;20190;-80
2023/02/28 08:39:48;;;;;;;13.73;12.23;;;;;;;4.02;84.53;100450.75;5015658;28;20209;-81
2023/02/28 08:42:15;;;;;;;14.23;11.30;;;;;;;4.04;84.71;100451.44;5033095;28;20730;-80
2023/02/28 08:44:42;;;;;;;12.97;11.27;;;;;;;4.06;84.96;100452.09;5032509;28;20221;-82
2023/02/28 08:47:08;;;;;;;12.97;11.47;;;;;;;4.11;84.71;100451.59;5031287;28;20209;-81
2023/02/28 08:49:37;;;;;;;14.37;11.53;;;;;;;4.21;84.34;100452.31;5031863;28;20194;-80
2023/02/28 08:52:04;;;;;;;13.53;11.40;;;;;;;4.29;84.80;100450.53;5014790;28;20545;-79
2023/02/28 08:54:33;;;;;;;14.00;12.47;;;;;;;4.40;84.29;100454.72;5015370;28;20198;-80
2023/02/28 08:56:59;;;;;;;15.77;11.93;;;;;;;4.44;83.15;100456.91;5032976;28;20241;-78
2023/02/28 08:59:26;;;;;;;14.47;11.57;;;;;;;4.41;82.82;100456.41;5032738;28;20297;-83
2023/02/28 09:01:53;;;;;;;13.30;11.90;;;;;;;4.47;82.49;100449.63;5016614;28;20693;-82
2023/02/28 09:04:20;;;;;;;15.37;11.03;;;;;;;4.53;81.99;100454.28;5034055;28;20204;-80
2023/02/28 09:06:50;;;;;;;13.13;11.10;;;;;;;4.58;82.16;100449.31;5035356;28;20194;-79
2023/02/28 09:09:16;;;;;;;12.10;10.43;;;;;;;4.56;82.54;100453.97;5033676;28;20226;-81
2023/02/28 09:11:43;;;;;;;16.40;12.70;;;;;;;4.81;81.34;100453.88;5015313;28;20208;-79
2023/02/28 09:14:10;;;;;;;15.33;11.87;;;;;;;4.95;80.45;100451.56;5017201;28;20232;-79
2023/02/28 09:16:37;;;;;;;14.50;11.70;;;;;;;5.03;80.44;100451.59;5018701;28;20225;-81
2023/02/28 09:19:04;;;;;;;12.47;11.10;;;;;;;5.19;79.84;100448.94;5040545;28;20181;-81
2023/02/28 09:21:30;;;;;;;14.70;12.30;;;;;;;5.33;80.16;100451.78;5019401;28;20209;-83
2023/02/28 09:23:57;;;;;;;12.07;10.73;;;;;;;5.55;79.17;100449.47;5032058;28;20186;-81
2023/02/28 09:26:26;;;;;;;13.53;11.43;;;;;;;5.58;78.60;100446.47;5037317;28;20194;-80
2023/02/28 09:29:04;;;;;;;12.80;11.50;;;;;;;5.87;79.51;100444.13;5005325;28;20202;-79
2023/02/28 09:31:31;;;;;;;14.07;12.03;;;;;;;5.78;78.78;100439.78;5037180;28;20194;-81
2023/02/28 09:34:01;;;;;;;12.97;10.33;;;;;;;5.94;78.16;100444.25;5032022;28;20721;-79
2023/02/28 09:36:29;;;;;;;11.63;10.47;;;;;;;5.82;78.17;100449.09;5011438;28;20195;-82
2023/02/28 09:39:10;;;;;;;12.73;11.27;;;;;;;5.97;77.22;100447.41;5032047;28;20285;-80
2023/02/28 09:41:50;;;;;;;12.40;10.90;;;;;;;5.98;76.96;100446.41;5046061;28;20229;-82
2023/02/28 09:44:37;;;;;;;11.47;10.27;;;;;;;5.97;75.92;100442.09;5042421;28;20201;-79
2023/02/28 09:47:18;;;;;;;12.63;11.33;;;;;;;5.99;76.86;100452.56;5026193;28;20244;-80
2023/02/28 09:49:47;;;;;;;10.90;9.80;;;;;;;6.05;76.65;100443.91;5032061;28;20259;-82
2023/02/28 09:52:19;;;;;;;12.70;10.87;;;;;;;6.00;76.05;100448.91;5015856;28;20197;-80
2023/02/28 09:54:46;;;;;;;12.00;10.63;;;;;;;5.91;76.15;100450.75;5014210;28;20274;-80
2023/02/28 09:57:35;;;;;;;12.90;10.57;;;;;;;5.79;76.28;100446.75;5034519;28;20196;-81
2023/02/28 10:00:09;;;;;;;11.37;10.20;;;;;;;5.94;77.16;100446.91;5022496;28;20574;-82
2023/02/28 10:03:19;;;;;;;14.93;11.70;;;;;;;6.02;76.71;100442.41;5034844;28;20624;-82
2023/02/28 10:05:58;;;;;;;14.67;11.87;;;;;;;6.11;77.17;100446.69;5026165;28;20260;-81
2023/02/28 10:08:33;;;;;;;12.63;11.23;;;;;;;6.29;75.76;100438.50;5034854;28;20234;-80
2023/02/28 10:11:04;;;;;;;14.80;11.67;;;;;;;6.55;75.72;100447.03;5026648;28;20204;-79
2023/02/28 10:13:57;;;;;;;12.40;11.10;;;;;;;6.72;74.94;100444.31;5015270;28;20194;-79
2023/02/28 10:16:29;;;;;;;14.00;11.87;;;;;;;6.85;74.21;100449.88;5034173;28;20290;-81
2023/02/28 10:19:03;;;;;;;14.17;12.30;;;;;;;6.97;73.65;100445.81;5030984;28;20202;-81
2023/02/28 10:21:35;;;;;;;11.73;10.53;;;;;;;7.24;73.00;100434.63;5014350;28;20270;-82
2023/02/28 10:24:10;;;;;;;12.33;10.90;;;;;;;7.34;72.44;100443.19;5034467;28;20198;-82
2023/02/28 10:26:38;;;;;;;12.53;10.80;;;;;;;7.43;70.88;100433.28;5018137;28;20190;-83
2023/02/28 10:29:07;;;;;;;13.63;12.23;;;;;;;7.54;70.95;100430.22;5017709;28;20183;-79
2023/02/28 10:31:33;;;;;;;13.43;11.40;;;;;;;7.66;71.17;100433.25;5034220;28;20240;-80
2023/02/28 10:34:01;;;;;;;12.43;11.23;;;;;;;7.78;70.05;100426.47;5036698;28;20194;-80
2023/02/28 10:36:28;;;;;;;12.17;10.40;;;;;;;7.76;69.64;100415.97;5036155;28;20737;-80
2023/02/28 10:38:55;;;;;;;13.53;11.13;;;;;;;7.76;69.27;100415.16;5036859;28;20211;-80
2023/02/28 10:41:28;;;;;;;14.50;12.20;;;;;;;7.91;68.54;100414.16;5036549;28;20207;-83
2023/02/28 10:44:20;;;;;;;12.03;9.97;;;;;;;8.21;67.29;100414.97;5001018;28;20206;-80
2023/02/28 10:46:48;;;;;;;11.23;10.10;;;;;;;8.56;67.09;100421.41;5020021;28;20194;-78
2023/02/28 10:49:23;;;;;;;11.47;10.27;;;;;;;8.67;66.14;100404.09;5020106;28;20202;-79
2023/02/28 10:51:54;;;;;;;11.83;10.23;;;;;;;8.69;66.13;100416.22;5019733;28;20197;-79
2023/02/28 10:54:34;;;;;;;11.90;10.60;;;;;;;8.68;66.38;100411.06;5021365;28;20289;-79
2023/02/28 10:57:18;;;;;;;11.70;10.50;;;;;;;8.59;64.72;100402.34;5017869;28;20190;-79
2023/02/28 10:59:50;;;;;;;12.47;10.73;;;;;;;8.62;64.54;100401.16;5034118;28;20238;-80
2023/02/28 11:02:37;;;;;;;12.37;10.43;;;;;;;8.47;64.25;100401.16;5036306;28;20211;-79
2023/02/28 11:05:34;;;;;;;13.80;10.40;;;;;;;8.27;64.44;100400.06;5020207;28;20233;-80
2023/02/28 11:08:12;;;;;;;13.83;11.00;;;;;;;8.23;64.07;100404.94;5020533;28;20607;-80
2023/02/28 11:10:39;;;;;;;12.00;10.50;;;;;;;8.38;64.53;100386.28;5036338;28;20190;-80
2023/02/28 11:13:06;;;;;;;13.23;11.13;;;;;;;8.51;63.57;100396.28;5033481;28;20307;-79
2023/02/28 11:15:34;;;;;;;12.57;10.57;;;;;;;8.46;63.15;100398.69;5033588;28;20182;-81
2023/02/28 11:18:02;;;;;;;11.97;10.60;;;;;;;8.54;62.86;100391.38;5033221;28;20219;-79
2023/02/28 11:20:30;;;;;;;13.10;10.17;;;;;;;8.75;62.46;100391.44;5018322;28;20216;-79
2023/02/28 11:22:59;;;;;;;11.77;10.47;;;;;;;8.87;62.56;100390.91;5033124;28;20190;-80
2023/02/28 11:25:32;;;;;;;11.57;10.37;;;;;;;8.95;63.25;100375.59;5034436;28;20218;-80
2023/02/28 11:28:01;;;;;;;11.10;10.00;;;;;;;8.87;62.35;100380.22;5002979;28;20240;-80
2023/02/28 11:30:38;;;;;;;11.03;9.93;;;;;;;8.55;61.36;100385.03;5031734;28;20191;-79
2023/02/28 11:33:44;;;;;;;12.40;10.53;;;;;;;8.38;62.74;100378.25;5033093;28;20647;-80
2023/02/28 11:36:19;;;;;;;10.80;9.43;;;;;;;8.14;62.29;100379.38;5019697;28;20580;-80
2023/02/28 11:38:49;;;;;;;11.13;9.93;;;;;;;7.89;62.84;100376.16;5022653;28;20205;-80